METAR Data

Data at: 2058 UTC 08 Aug 2020

KSJC 082053Z VRB05KT 10SM CLR 29/14 A2993 RMK AO2 SLP133 T02940139 58012

KSJC 081720Z 0818/0918 15006KT P6SM SKC
  FM082130 32009KT P6SM SKC
  FM090800 15005KT P6SM SKC